Hattiesburg Bobby L Chain Municipal Airport
KHBG : now visible

Airfield :











YOU CAN JOIN US ON...

 
LOGIN :

Register | Disclaimer

   EN    FR    IT 

 









Legend :    VFR   Marginal VFR   IFR   Intensive IFR   Very Intensive IFR
Visi :
Ceiling :
>= 8 km
>= 3000ft
5 to 8 km
1000 to 3000 ft
1500m to 5 km
500 to 1000 ft
800 to 1500m
200 to 500 ft
< 800m
< 200 ft
Symbols :   Thunderstorms  Fog  Heavy snow  Heavy precipitations  Wind > 20 kt






- Airport Elevation : 151 ft


KHBG - Hattiesburg Bobby L Chain Municipal

CURRENT METAR :
  • 231353Z AUTO 00000KT 4SM BR SCT001 05/04 A3030 RMK AO2 SLP261 T00500039

EXPIRED METARs :
  • 231337Z AUTO 00000KT 3SM BR BKN002 03/03 A3030 RMK AO2 T00330028
  • 231325Z AUTO 00000KT 1 1/4SM BR OVC002 03/03 A3029 RMK AO2 T00330028
  • 231305Z AUTO 00000KT 1/4SM FG VV002 03/02 A3029 RMK AO2 T00280022
  • 231220Z AUTO 13003KT 1/4SM FG VV001 02/02 A3028 RMK AO2 VIS M1/4V3 T00220017
  • 231202Z AUTO 00000KT 10SM BKN001 02/02 A3028 RMK AO2 T00220017
  • 231153Z AUTO 00000KT 10SM SCT002 03/02 A3027 RMK AO2 SLP251 T00280017 10056 20028 51005

TAF KHBG
Valid from the 23 at 13:00 until the 24 at 12:00 UTC


231256Z 2313/2412 00000KT 1/2SM FG VV002
FM231500 16004KT P6SM BKN250
FM240600 16004KT P6SM OVC100



MET'MAP, your aeronautical weather chart ! - Copyright ORBIFLY December 2007 - Disclaimer

ORBIFLY MET'MAP TEAM :

Programming & Development : Alexandra Zaïnal
Concept & original design : Baudouin d'Aumeries
Assistance for programming : Marc-Olivier Méhu
Technical & hardware support : Manuel Goepfert

Contact : metmap@orbifly.com




SOURCES & CREDITS :

   NOAA       Earth
Advisory